sensor_id;sensor_type;location;lat;lon;timestamp;P1;durP1;ratioP1;P2;durP2;ratioP2
7531;SDS011;3807;49.030;8.714;2022-09-01T00:00:22;4.57;;;3.93;;
7531;SDS011;3807;49.030;8.714;2022-09-01T00:02:53;6.40;;;3.70;;
7531;SDS011;3807;49.030;8.714;2022-09-01T00:05:24;4.23;;;3.40;;
7531;SDS011;3807;49.030;8.714;2022-09-01T00:08:01;7.07;;;3.55;;
7531;SDS011;3807;49.030;8.714;2022-09-01T00:10:41;4.83;;;3.47;;
7531;SDS011;3807;49.030;8.714;2022-09-01T00:16:16;6.13;;;3.80;;
7531;SDS011;3807;49.030;8.714;2022-09-01T00:18:44;6.47;;;3.90;;
7531;SDS011;3807;49.030;8.714;2022-09-01T00:21:13;4.87;;;4.28;;
7531;SDS011;3807;49.030;8.714;2022-09-01T00:23:40;4.13;;;3.73;;
7531;SDS011;3807;49.030;8.714;2022-09-01T00:26:06;4.50;;;3.90;;
7531;SDS011;3807;49.030;8.714;2022-09-01T00:28:32;4.27;;;3.60;;
7531;SDS011;3807;49.030;8.714;2022-09-01T00:30:57;4.10;;;3.70;;
7531;SDS011;3807;49.030;8.714;2022-09-01T00:33:23;6.43;;;3.90;;
7531;SDS011;3807;49.030;8.714;2022-09-01T00:35:48;4.17;;;3.77;;
7531;SDS011;3807;49.030;8.714;2022-09-01T00:38:14;3.90;;;3.50;;
7531;SDS011;3807;49.030;8.714;2022-09-01T00:40:39;4.30;;;3.57;;
7531;SDS011;3807;49.030;8.714;2022-09-01T00:43:12;4.70;;;4.00;;
7531;SDS011;3807;49.030;8.714;2022-09-01T00:45:41;5.23;;;3.90;;
7531;SDS011;3807;49.030;8.714;2022-09-01T00:48:06;6.03;;;4.13;;
7531;SDS011;3807;49.030;8.714;2022-09-01T00:50:31;6.13;;;3.60;;
7531;SDS011;3807;49.030;8.714;2022-09-01T00:52:57;7.47;;;4.43;;
7531;SDS011;3807;49.030;8.714;2022-09-01T00:55:24;6.40;;;4.00;;
7531;SDS011;3807;49.030;8.714;2022-09-01T00:57:53;5.40;;;4.00;;
7531;SDS011;3807;49.030;8.714;2022-09-01T01:00:21;4.90;;;4.30;;
7531;SDS011;3807;49.030;8.714;2022-09-01T01:02:49;6.00;;;3.87;;
7531;SDS011;3807;49.030;8.714;2022-09-01T01:05:20;6.10;;;3.93;;
7531;SDS011;3807;49.030;8.714;2022-09-01T01:07:47;6.33;;;4.07;;
7531;SDS011;3807;49.030;8.714;2022-09-01T01:10:15;5.40;;;4.37;;
7531;SDS011;3807;49.030;8.714;2022-09-01T01:12:43;7.03;;;4.20;;
7531;SDS011;3807;49.030;8.714;2022-09-01T01:15:13;5.10;;;4.17;;
7531;SDS011;3807;49.030;8.714;2022-09-01T01:17:39;5.77;;;4.40;;
7531;SDS011;3807;49.030;8.714;2022-09-01T01:20:05;7.90;;;4.13;;
7531;SDS011;3807;49.030;8.714;2022-09-01T01:22:57;6.50;;;4.87;;
7531;SDS011;3807;49.030;8.714;2022-09-01T01:28:20;7.23;;;4.23;;
7531;SDS011;3807;49.030;8.714;2022-09-01T01:30:52;6.40;;;4.03;;
7531;SDS011;3807;49.030;8.714;2022-09-01T01:33:24;7.23;;;4.00;;
7531;SDS011;3807;49.030;8.714;2022-09-01T01:35:52;4.37;;;3.93;;
7531;SDS011;3807;49.030;8.714;2022-09-01T01:38:21;6.00;;;4.27;;
7531;SDS011;3807;49.030;8.714;2022-09-01T01:40:47;5.87;;;4.30;;
7531;SDS011;3807;49.030;8.714;2022-09-01T01:43:14;5.40;;;4.17;;
7531;SDS011;3807;49.030;8.714;2022-09-01T01:45:44;6.90;;;4.77;;
7531;SDS011;3807;49.030;8.714;2022-09-01T01:48:12;5.93;;;4.63;;
7531;SDS011;3807;49.030;8.714;2022-09-01T01:50:40;8.03;;;4.60;;
7531;SDS011;3807;49.030;8.714;2022-09-01T01:53:07;5.70;;;4.40;;
7531;SDS011;3807;49.030;8.714;2022-09-01T01:55:33;7.23;;;4.57;;
7531;SDS011;3807;49.030;8.714;2022-09-01T01:57:59;6.43;;;4.53;;
7531;SDS011;3807;49.030;8.714;2022-09-01T02:00:26;7.40;;;4.70;;
7531;SDS011;3807;49.030;8.714;2022-09-01T02:02:53;7.27;;;4.63;;
7531;SDS011;3807;49.030;8.714;2022-09-01T02:05:20;4.97;;;4.43;;
7531;SDS011;3807;49.030;8.714;2022-09-01T02:07:58;7.27;;;4.47;;
7531;SDS011;3807;49.030;8.714;2022-09-01T02:10:26;5.70;;;4.50;;
7531;SDS011;3807;49.030;8.714;2022-09-01T02:12:55;6.43;;;4.73;;
7531;SDS011;3807;49.030;8.714;2022-09-01T02:15:28;6.33;;;4.93;;
7531;SDS011;3807;49.030;8.714;2022-09-01T02:18:02;5.67;;;4.93;;
7531;SDS011;3807;49.030;8.714;2022-09-01T02:20:28;6.70;;;4.57;;
7531;SDS011;3807;49.030;8.714;2022-09-01T02:22:54;7.53;;;4.77;;
7531;SDS011;3807;49.030;8.714;2022-09-01T02:25:20;5.63;;;4.53;;
7531;SDS011;3807;49.030;8.714;2022-09-01T02:27:47;6.00;;;4.50;;
7531;SDS011;3807;49.030;8.714;2022-09-01T02:30:16;5.13;;;4.43;;
7531;SDS011;3807;49.030;8.714;2022-09-01T02:32:42;6.20;;;4.73;;
7531;SDS011;3807;49.030;8.714;2022-09-01T02:35:07;6.37;;;4.80;;
7531;SDS011;3807;49.030;8.714;2022-09-01T02:37:34;5.70;;;4.93;;
7531;SDS011;3807;49.030;8.714;2022-09-01T02:40:03;9.13;;;4.67;;
7531;SDS011;3807;49.030;8.714;2022-09-01T02:42:30;8.07;;;5.47;;
7531;SDS011;3807;49.030;8.714;2022-09-01T02:44:55;7.43;;;5.23;;
7531;SDS011;3807;49.030;8.714;2022-09-01T02:47:22;5.33;;;4.53;;
7531;SDS011;3807;49.030;8.714;2022-09-01T02:49:51;5.50;;;4.67;;
7531;SDS011;3807;49.030;8.714;2022-09-01T02:52:16;6.23;;;4.90;;
7531;SDS011;3807;49.030;8.714;2022-09-01T02:54:44;7.10;;;4.90;;
7531;SDS011;3807;49.030;8.714;2022-09-01T02:57:13;8.53;;;4.73;;
7531;SDS011;3807;49.030;8.714;2022-09-01T02:59:38;4.93;;;4.43;;
7531;SDS011;3807;49.030;8.714;2022-09-01T03:02:06;6.77;;;5.20;;
7531;SDS011;3807;49.030;8.714;2022-09-01T03:04:32;5.73;;;5.13;;
7531;SDS011;3807;49.030;8.714;2022-09-01T03:06:59;6.63;;;5.07;;
7531;SDS011;3807;49.030;8.714;2022-09-01T03:09:25;6.77;;;5.13;;
7531;SDS011;3807;49.030;8.714;2022-09-01T03:11:52;6.97;;;5.30;;
7531;SDS011;3807;49.030;8.714;2022-09-01T03:14:19;6.13;;;5.27;;
7531;SDS011;3807;49.030;8.714;2022-09-01T03:16:45;5.73;;;4.90;;
7531;SDS011;3807;49.030;8.714;2022-09-01T03:19:11;8.67;;;5.40;;
7531;SDS011;3807;49.030;8.714;2022-09-01T03:21:38;7.33;;;4.93;;
7531;SDS011;3807;49.030;8.714;2022-09-01T03:24:06;6.50;;;4.93;;
7531;SDS011;3807;49.030;8.714;2022-09-01T03:26:33;5.57;;;5.00;;
7531;SDS011;3807;49.030;8.714;2022-09-01T03:29:00;7.10;;;4.90;;
7531;SDS011;3807;49.030;8.714;2022-09-01T03:31:27;7.93;;;5.17;;
7531;SDS011;3807;49.030;8.714;2022-09-01T03:33:55;7.97;;;4.90;;
7531;SDS011;3807;49.030;8.714;2022-09-01T03:36:24;7.10;;;5.27;;
7531;SDS011;3807;49.030;8.714;2022-09-01T03:38:51;6.57;;;4.47;;
7531;SDS011;3807;49.030;8.714;2022-09-01T03:41:23;5.63;;;4.33;;
7531;SDS011;3807;49.030;8.714;2022-09-01T03:43:52;10.53;;;6.13;;
7531;SDS011;3807;49.030;8.714;2022-09-01T03:46:19;6.23;;;5.50;;
7531;SDS011;3807;49.030;8.714;2022-09-01T03:48:49;6.30;;;5.13;;
7531;SDS011;3807;49.030;8.714;2022-09-01T03:51:17;9.27;;;5.93;;
7531;SDS011;3807;49.030;8.714;2022-09-01T03:53:44;8.23;;;5.87;;
7531;SDS011;3807;49.030;8.714;2022-09-01T03:56:11;6.93;;;5.60;;
7531;SDS011;3807;49.030;8.714;2022-09-01T03:58:39;8.10;;;5.83;;
7531;SDS011;3807;49.030;8.714;2022-09-01T04:01:08;5.83;;;5.23;;
7531;SDS011;3807;49.030;8.714;2022-09-01T04:03:35;6.00;;;5.30;;
7531;SDS011;3807;49.030;8.714;2022-09-01T04:06:03;8.57;;;5.53;;
7531;SDS011;3807;49.030;8.714;2022-09-01T04:08:32;6.07;;;5.43;;
7531;SDS011;3807;49.030;8.714;2022-09-01T04:10:59;7.93;;;6.13;;
7531;SDS011;3807;49.030;8.714;2022-09-01T04:13:28;6.43;;;5.67;;
7531;SDS011;3807;49.030;8.714;2022-09-01T04:15:58;7.80;;;6.27;;
7531;SDS011;3807;49.030;8.714;2022-09-01T04:18:24;8.43;;;6.95;;
7531;SDS011;3807;49.030;8.714;2022-09-01T04:20:54;9.70;;;6.40;;
7531;SDS011;3807;49.030;8.714;2022-09-01T04:25:57;10.57;;;6.47;;
7531;SDS011;3807;49.030;8.714;2022-09-01T04:28:33;6.90;;;6.07;;
7531;SDS011;3807;49.030;8.714;2022-09-01T04:31:01;7.33;;;5.80;;
7531;SDS011;3807;49.030;8.714;2022-09-01T04:33:32;6.90;;;6.10;;
7531;SDS011;3807;49.030;8.714;2022-09-01T04:36:25;7.30;;;6.13;;
7531;SDS011;3807;49.030;8.714;2022-09-01T04:38:55;8.00;;;6.40;;
7531;SDS011;3807;49.030;8.714;2022-09-01T04:41:26;7.17;;;5.90;;
7531;SDS011;3807;49.030;8.714;2022-09-01T04:43:55;7.83;;;6.37;;
7531;SDS011;3807;49.030;8.714;2022-09-01T04:46:22;9.43;;;6.50;;
7531;SDS011;3807;49.030;8.714;2022-09-01T04:48:53;7.07;;;6.27;;
7531;SDS011;3807;49.030;8.714;2022-09-01T04:51:19;8.10;;;6.23;;
7531;SDS011;3807;49.030;8.714;2022-09-01T04:53:46;8.63;;;6.67;;
7531;SDS011;3807;49.030;8.714;2022-09-01T04:56:15;10.67;;;7.10;;
7531;SDS011;3807;49.030;8.714;2022-09-01T04:58:43;8.77;;;6.87;;
7531;SDS011;3807;49.030;8.714;2022-09-01T05:01:18;8.43;;;7.07;;
7531;SDS011;3807;49.030;8.714;2022-09-01T05:03:46;8.40;;;6.40;;
7531;SDS011;3807;49.030;8.714;2022-09-01T05:06:25;8.93;;;7.07;;
7531;SDS011;3807;49.030;8.714;2022-09-01T05:08:52;9.20;;;7.47;;
7531;SDS011;3807;49.030;8.714;2022-09-01T05:11:17;11.10;;;7.63;;
7531;SDS011;3807;49.030;8.714;2022-09-01T05:13:46;8.10;;;6.93;;
7531;SDS011;3807;49.030;8.714;2022-09-01T05:16:14;9.03;;;6.77;;
7531;SDS011;3807;49.030;8.714;2022-09-01T05:18:46;6.93;;;5.70;;
7531;SDS011;3807;49.030;8.714;2022-09-01T05:21:13;8.90;;;7.30;;
7531;SDS011;3807;49.030;8.714;2022-09-01T05:23:42;9.27;;;7.30;;
7531;SDS011;3807;49.030;8.714;2022-09-01T05:26:13;9.23;;;7.67;;
7531;SDS011;3807;49.030;8.714;2022-09-01T05:28:44;11.27;;;7.87;;
7531;SDS011;3807;49.030;8.714;2022-09-01T05:31:11;10.37;;;7.60;;
7531;SDS011;3807;49.030;8.714;2022-09-01T05:33:37;9.77;;;7.67;;
7531;SDS011;3807;49.030;8.714;2022-09-01T05:36:10;11.73;;;8.30;;
7531;SDS011;3807;49.030;8.714;2022-09-01T05:38:36;8.43;;;7.47;;
7531;SDS011;3807;49.030;8.714;2022-09-01T05:41:06;12.97;;;7.37;;
7531;SDS011;3807;49.030;8.714;2022-09-01T05:43:34;11.60;;;9.17;;
7531;SDS011;3807;49.030;8.714;2022-09-01T05:46:00;10.17;;;7.90;;
7531;SDS011;3807;49.030;8.714;2022-09-01T05:48:28;11.70;;;9.50;;
7531;SDS011;3807;49.030;8.714;2022-09-01T05:50:55;14.87;;;9.30;;
7531;SDS011;3807;49.030;8.714;2022-09-01T05:53:24;14.40;;;9.23;;
7531;SDS011;3807;49.030;8.714;2022-09-01T05:55:55;14.37;;;10.27;;
7531;SDS011;3807;49.030;8.714;2022-09-01T05:58:23;12.93;;;10.43;;
7531;SDS011;3807;49.030;8.714;2022-09-01T06:00:50;13.63;;;10.53;;
7531;SDS011;3807;49.030;8.714;2022-09-01T06:03:18;12.23;;;9.83;;
7531;SDS011;3807;49.030;8.714;2022-09-01T06:05:46;14.23;;;9.40;;
7531;SDS011;3807;49.030;8.714;2022-09-01T06:08:16;13.00;;;9.80;;
7531;SDS011;3807;49.030;8.714;2022-09-01T06:10:47;16.07;;;11.20;;
7531;SDS011;3807;49.030;8.714;2022-09-01T06:13:14;15.30;;;10.10;;
7531;SDS011;3807;49.030;8.714;2022-09-01T06:15:41;17.43;;;10.20;;
7531;SDS011;3807;49.030;8.714;2022-09-01T06:18:09;12.43;;;9.67;;
7531;SDS011;3807;49.030;8.714;2022-09-01T06:20:40;20.80;;;10.40;;
7531;SDS011;3807;49.030;8.714;2022-09-01T06:23:07;16.80;;;10.40;;
7531;SDS011;3807;49.030;8.714;2022-09-01T06:25:37;12.07;;;9.90;;
7531;SDS011;3807;49.030;8.714;2022-09-01T06:28:03;11.33;;;8.47;;
7531;SDS011;3807;49.030;8.714;2022-09-01T06:30:30;11.37;;;8.27;;
7531;SDS011;3807;49.030;8.714;2022-09-01T06:32:57;14.93;;;8.27;;
7531;SDS011;3807;49.030;8.714;2022-09-01T06:35:25;14.40;;;10.57;;
7531;SDS011;3807;49.030;8.714;2022-09-01T06:37:53;13.47;;;10.23;;
7531;SDS011;3807;49.030;8.714;2022-09-01T06:40:20;15.73;;;10.57;;
7531;SDS011;3807;49.030;8.714;2022-09-01T06:42:47;17.17;;;12.03;;
7531;SDS011;3807;49.030;8.714;2022-09-01T06:45:15;15.97;;;11.90;;
7531;SDS011;3807;49.030;8.714;2022-09-01T06:47:43;18.53;;;11.63;;
7531;SDS011;3807;49.030;8.714;2022-09-01T06:50:13;15.17;;;11.37;;
7531;SDS011;3807;49.030;8.714;2022-09-01T06:52:40;16.90;;;11.73;;
7531;SDS011;3807;49.030;8.714;2022-09-01T06:55:07;17.33;;;11.43;;
7531;SDS011;3807;49.030;8.714;2022-09-01T06:57:37;21.77;;;13.77;;
7531;SDS011;3807;49.030;8.714;2022-09-01T07:00:04;18.07;;;12.77;;
7531;SDS011;3807;49.030;8.714;2022-09-01T07:02:32;14.80;;;11.03;;
7531;SDS011;3807;49.030;8.714;2022-09-01T07:04:57;14.33;;;11.37;;
7531;SDS011;3807;49.030;8.714;2022-09-01T07:07:23;18.03;;;10.00;;
7531;SDS011;3807;49.030;8.714;2022-09-01T07:09:49;16.93;;;11.77;;
7531;SDS011;3807;49.030;8.714;2022-09-01T07:12:14;20.07;;;11.00;;
7531;SDS011;3807;49.030;8.714;2022-09-01T07:14:43;19.50;;;11.33;;
7531;SDS011;3807;49.030;8.714;2022-09-01T07:17:08;16.90;;;9.73;;
7531;SDS011;3807;49.030;8.714;2022-09-01T07:19:36;14.03;;;9.63;;
7531;SDS011;3807;49.030;8.714;2022-09-01T07:22:01;12.13;;;9.47;;
7531;SDS011;3807;49.030;8.714;2022-09-01T07:24:28;13.23;;;10.30;;
7531;SDS011;3807;49.030;8.714;2022-09-01T07:26:54;14.23;;;10.07;;
7531;SDS011;3807;49.030;8.714;2022-09-01T07:29:20;16.70;;;9.53;;
7531;SDS011;3807;49.030;8.714;2022-09-01T07:31:49;12.70;;;8.27;;
7531;SDS011;3807;49.030;8.714;2022-09-01T07:34:16;9.77;;;7.83;;
7531;SDS011;3807;49.030;8.714;2022-09-01T07:36:42;10.60;;;8.57;;
7531;SDS011;3807;49.030;8.714;2022-09-01T07:39:08;10.93;;;8.20;;
7531;SDS011;3807;49.030;8.714;2022-09-01T07:41:34;9.67;;;6.70;;
7531;SDS011;3807;49.030;8.714;2022-09-01T07:44:00;8.63;;;7.13;;
7531;SDS011;3807;49.030;8.714;2022-09-01T07:46:29;9.97;;;7.23;;
7531;SDS011;3807;49.030;8.714;2022-09-01T07:48:59;11.37;;;7.50;;
7531;SDS011;3807;49.030;8.714;2022-09-01T07:51:26;10.47;;;7.43;;
7531;SDS011;3807;49.030;8.714;2022-09-01T07:53:52;9.57;;;7.27;;
7531;SDS011;3807;49.030;8.714;2022-09-01T07:56:18;8.97;;;6.33;;
7531;SDS011;3807;49.030;8.714;2022-09-01T07:58:46;10.60;;;8.03;;
7531;SDS011;3807;49.030;8.714;2022-09-01T08:01:14;11.63;;;6.83;;
7531;SDS011;3807;49.030;8.714;2022-09-01T08:03:43;8.53;;;6.73;;
7531;SDS011;3807;49.030;8.714;2022-09-01T08:06:11;10.83;;;6.43;;
7531;SDS011;3807;49.030;8.714;2022-09-01T08:08:39;8.67;;;5.67;;
7531;SDS011;3807;49.030;8.714;2022-09-01T08:11:05;8.17;;;6.80;;
7531;SDS011;3807;49.030;8.714;2022-09-01T08:13:32;8.63;;;7.00;;
7531;SDS011;3807;49.030;8.714;2022-09-01T08:16:01;14.47;;;6.47;;
7531;SDS011;3807;49.030;8.714;2022-09-01T08:18:31;9.20;;;5.70;;
7531;SDS011;3807;49.030;8.714;2022-09-01T08:20:56;9.97;;;5.63;;
7531;SDS011;3807;49.030;8.714;2022-09-01T08:23:22;10.27;;;5.67;;
7531;SDS011;3807;49.030;8.714;2022-09-01T08:25:50;9.67;;;5.73;;
7531;SDS011;3807;49.030;8.714;2022-09-01T08:28:16;7.97;;;6.27;;
7531;SDS011;3807;49.030;8.714;2022-09-01T08:30:42;10.60;;;7.00;;
7531;SDS011;3807;49.030;8.714;2022-09-01T08:33:09;7.23;;;6.10;;
7531;SDS011;3807;49.030;8.714;2022-09-01T08:35:45;7.77;;;5.90;;
7531;SDS011;3807;49.030;8.714;2022-09-01T08:38:12;9.60;;;6.83;;
7531;SDS011;3807;49.030;8.714;2022-09-01T08:40:39;9.43;;;6.57;;
7531;SDS011;3807;49.030;8.714;2022-09-01T08:43:09;8.33;;;6.33;;
7531;SDS011;3807;49.030;8.714;2022-09-01T08:45:53;7.10;;;6.13;;
7531;SDS011;3807;49.030;8.714;2022-09-01T08:48:24;8.80;;;7.33;;
7531;SDS011;3807;49.030;8.714;2022-09-01T08:53:42;9.10;;;7.07;;
7531;SDS011;3807;49.030;8.714;2022-09-01T08:56:36;11.07;;;6.87;;
7531;SDS011;3807;49.030;8.714;2022-09-01T08:59:02;8.63;;;6.50;;
7531;SDS011;3807;49.030;8.714;2022-09-01T09:04:34;14.50;;;7.67;;
7531;SDS011;3807;49.030;8.714;2022-09-01T09:09:52;8.20;;;6.80;;
7531;SDS011;3807;49.030;8.714;2022-09-01T09:12:32;9.90;;;6.87;;
7531;SDS011;3807;49.030;8.714;2022-09-01T09:15:11;9.03;;;7.10;;
7531;SDS011;3807;49.030;8.714;2022-09-01T09:17:47;11.30;;;6.87;;
7531;SDS011;3807;49.030;8.714;2022-09-01T09:20:23;8.03;;;6.27;;
7531;SDS011;3807;49.030;8.714;2022-09-01T09:22:49;12.40;;;6.20;;
7531;SDS011;3807;49.030;8.714;2022-09-01T09:25:16;6.97;;;5.40;;
7531;SDS011;3807;49.030;8.714;2022-09-01T09:27:43;6.97;;;6.27;;
7531;SDS011;3807;49.030;8.714;2022-09-01T09:30:12;8.77;;;6.43;;
7531;SDS011;3807;49.030;8.714;2022-09-01T09:32:54;9.87;;;5.37;;
7531;SDS011;3807;49.030;8.714;2022-09-01T09:35:40;7.57;;;5.53;;
7531;SDS011;3807;49.030;8.714;2022-09-01T09:40:35;5.90;;;4.17;;
7531;SDS011;3807;49.030;8.714;2022-09-01T09:43:02;5.67;;;5.03;;
7531;SDS011;3807;49.030;8.714;2022-09-01T09:45:34;6.67;;;5.30;;
7531;SDS011;3807;49.030;8.714;2022-09-01T09:48:07;7.30;;;4.87;;
7531;SDS011;3807;49.030;8.714;2022-09-01T09:53:09;5.80;;;4.90;;
7531;SDS011;3807;49.030;8.714;2022-09-01T09:55:50;5.50;;;4.03;;
7531;SDS011;3807;49.030;8.714;2022-09-01T09:58:22;5.30;;;4.70;;
7531;SDS011;3807;49.030;8.714;2022-09-01T10:03:40;5.87;;;4.50;;
7531;SDS011;3807;49.030;8.714;2022-09-01T10:09:47;4.93;;;4.30;;
7531;SDS011;3807;49.030;8.714;2022-09-01T10:11:49;4.70;;;4.10;;
7531;SDS011;3807;49.030;8.714;2022-09-01T10:14:18;4.63;;;3.90;;
7531;SDS011;3807;49.030;8.714;2022-09-01T10:16:57;4.40;;;4.00;;
7531;SDS011;3807;49.030;8.714;2022-09-01T10:19:26;5.63;;;4.50;;
7531;SDS011;3807;49.030;8.714;2022-09-01T10:21:53;5.83;;;4.10;;
7531;SDS011;3807;49.030;8.714;2022-09-01T10:24:24;5.67;;;4.23;;
7531;SDS011;3807;49.030;8.714;2022-09-01T10:26:58;6.03;;;4.10;;
7531;SDS011;3807;49.030;8.714;2022-09-01T10:32:44;5.50;;;4.33;;
7531;SDS011;3807;49.030;8.714;2022-09-01T10:35:17;5.30;;;4.13;;
7531;SDS011;3807;49.030;8.714;2022-09-01T10:37:48;5.13;;;4.23;;
7531;SDS011;3807;49.030;8.714;2022-09-01T10:43:43;5.30;;;4.10;;
7531;SDS011;3807;49.030;8.714;2022-09-01T10:45:51;5.97;;;4.13;;
7531;SDS011;3807;49.030;8.714;2022-09-01T10:53:38;5.33;;;4.20;;
7531;SDS011;3807;49.030;8.714;2022-09-01T11:04:03;4.93;;;3.97;;
7531;SDS011;3807;49.030;8.714;2022-09-01T11:09:05;5.28;;;4.32;;
7531;SDS011;3807;49.030;8.714;2022-09-01T11:11:43;5.37;;;3.90;;
7531;SDS011;3807;49.030;8.714;2022-09-01T11:14:19;5.37;;;4.25;;
7531;SDS011;3807;49.030;8.714;2022-09-01T11:27:09;6.35;;;4.28;;
7531;SDS011;3807;49.030;8.714;2022-09-01T11:29:55;4.15;;;3.45;;
7531;SDS011;3807;49.030;8.714;2022-09-01T11:32:25;6.85;;;3.78;;
7531;SDS011;3807;49.030;8.714;2022-09-01T11:34:56;4.35;;;3.50;;
7531;SDS011;3807;49.030;8.714;2022-09-01T11:37:24;3.50;;;3.20;;
7531;SDS011;3807;49.030;8.714;2022-09-01T11:39:51;3.95;;;3.55;;
7531;SDS011;3807;49.030;8.714;2022-09-01T11:42:30;6.07;;;3.60;;
7531;SDS011;3807;49.030;8.714;2022-09-01T11:45:17;10.10;;;3.60;;
7531;SDS011;3807;49.030;8.714;2022-09-01T11:47:46;4.40;;;3.78;;
7531;SDS011;3807;49.030;8.714;2022-09-01T11:50:19;3.78;;;3.42;;
7531;SDS011;3807;49.030;8.714;2022-09-01T11:55:46;11.18;;;3.30;;
7531;SDS011;3807;49.030;8.714;2022-09-01T11:58:27;5.95;;;3.22;;
7531;SDS011;3807;49.030;8.714;2022-09-01T12:03:44;9.05;;;3.15;;
7531;SDS011;3807;49.030;8.714;2022-09-01T12:06:17;7.10;;;2.70;;
7531;SDS011;3807;49.030;8.714;2022-09-01T12:08:50;3.53;;;2.95;;
7531;SDS011;3807;49.030;8.714;2022-09-01T12:11:19;5.07;;;3.00;;
7531;SDS011;3807;49.030;8.714;2022-09-01T12:13:58;4.78;;;3.05;;
7531;SDS011;3807;49.030;8.714;2022-09-01T12:16:26;3.12;;;2.78;;
7531;SDS011;3807;49.030;8.714;2022-09-01T12:18:53;3.75;;;2.53;;
7531;SDS011;3807;49.030;8.714;2022-09-01T12:21:25;3.20;;;2.72;;
7531;SDS011;3807;49.030;8.714;2022-09-01T12:23:53;9.05;;;2.17;;
7531;SDS011;3807;49.030;8.714;2022-09-01T12:26:33;8.25;;;2.72;;
7531;SDS011;3807;49.030;8.714;2022-09-01T12:28:58;3.78;;;2.50;;
7531;SDS011;3807;49.030;8.714;2022-09-01T12:31:24;3.25;;;2.10;;
7531;SDS011;3807;49.030;8.714;2022-09-01T12:33:51;4.32;;;2.40;;
7531;SDS011;3807;49.030;8.714;2022-09-01T12:36:32;3.70;;;2.53;;
7531;SDS011;3807;49.030;8.714;2022-09-01T12:49:58;3.37;;;2.22;;
7531;SDS011;3807;49.030;8.714;2022-09-01T12:52:26;2.75;;;2.53;;
7531;SDS011;3807;49.030;8.714;2022-09-01T12:57:29;4.32;;;2.70;;
7531;SDS011;3807;49.030;8.714;2022-09-01T13:02:40;2.97;;;2.47;;
7531;SDS011;3807;49.030;8.714;2022-09-01T13:05:21;3.35;;;2.67;;
7531;SDS011;3807;49.030;8.714;2022-09-01T13:07:51;3.85;;;2.75;;
7531;SDS011;3807;49.030;8.714;2022-09-01T13:10:18;3.37;;;2.00;;
7531;SDS011;3807;49.030;8.714;2022-09-01T13:12:44;4.20;;;2.47;;
7531;SDS011;3807;49.030;8.714;2022-09-01T13:15:10;4.93;;;2.33;;
7531;SDS011;3807;49.030;8.714;2022-09-01T13:17:36;2.67;;;2.47;;
7531;SDS011;3807;49.030;8.714;2022-09-01T13:20:03;3.45;;;2.60;;
7531;SDS011;3807;49.030;8.714;2022-09-01T13:22:29;4.82;;;2.30;;
7531;SDS011;3807;49.030;8.714;2022-09-01T13:24:54;2.78;;;2.28;;
7531;SDS011;3807;49.030;8.714;2022-09-01T13:27:20;3.87;;;2.25;;
7531;SDS011;3807;49.030;8.714;2022-09-01T13:29:46;13.60;;;2.47;;
7531;SDS011;3807;49.030;8.714;2022-09-01T13:32:12;4.80;;;2.33;;
7531;SDS011;3807;49.030;8.714;2022-09-01T13:34:38;2.83;;;2.60;;
7531;SDS011;3807;49.030;8.714;2022-09-01T13:37:04;3.00;;;2.05;;
7531;SDS011;3807;49.030;8.714;2022-09-01T13:39:30;4.07;;;2.35;;
7531;SDS011;3807;49.030;8.714;2022-09-01T13:41:56;5.82;;;2.40;;
7531;SDS011;3807;49.030;8.714;2022-09-01T13:44:21;2.40;;;2.20;;
7531;SDS011;3807;49.030;8.714;2022-09-01T13:46:47;3.03;;;2.72;;
7531;SDS011;3807;49.030;8.714;2022-09-01T13:49:12;4.22;;;2.70;;
7531;SDS011;3807;49.030;8.714;2022-09-01T13:51:37;4.95;;;2.47;;
7531;SDS011;3807;49.030;8.714;2022-09-01T13:54:04;3.97;;;3.15;;
7531;SDS011;3807;49.030;8.714;2022-09-01T13:56:29;4.32;;;2.60;;
7531;SDS011;3807;49.030;8.714;2022-09-01T13:58:55;2.95;;;2.28;;
7531;SDS011;3807;49.030;8.714;2022-09-01T14:01:20;2.53;;;2.33;;
7531;SDS011;3807;49.030;8.714;2022-09-01T14:03:46;3.47;;;2.70;;
7531;SDS011;3807;49.030;8.714;2022-09-01T14:06:12;2.50;;;2.30;;
7531;SDS011;3807;49.030;8.714;2022-09-01T14:08:38;3.75;;;2.70;;
7531;SDS011;3807;49.030;8.714;2022-09-01T14:11:04;2.75;;;2.55;;
7531;SDS011;3807;49.030;8.714;2022-09-01T14:13:30;4.53;;;2.80;;
7531;SDS011;3807;49.030;8.714;2022-09-01T14:15:56;3.42;;;2.47;;
7531;SDS011;3807;49.030;8.714;2022-09-01T14:18:22;3.28;;;2.97;;
7531;SDS011;3807;49.030;8.714;2022-09-01T14:20:49;2.92;;;2.60;;
7531;SDS011;3807;49.030;8.714;2022-09-01T14:23:15;2.65;;;2.45;;
7531;SDS011;3807;49.030;8.714;2022-09-01T14:25:43;2.83;;;2.60;;
7531;SDS011;3807;49.030;8.714;2022-09-01T14:28:10;5.32;;;2.53;;
7531;SDS011;3807;49.030;8.714;2022-09-01T14:30:38;4.00;;;2.80;;
7531;SDS011;3807;49.030;8.714;2022-09-01T14:33:05;3.30;;;2.60;;
7531;SDS011;3807;49.030;8.714;2022-09-01T14:35:31;3.87;;;2.80;;
7531;SDS011;3807;49.030;8.714;2022-09-01T14:37:58;2.97;;;2.60;;
7531;SDS011;3807;49.030;8.714;2022-09-01T14:40:25;3.22;;;2.53;;
7531;SDS011;3807;49.030;8.714;2022-09-01T14:42:53;2.83;;;2.62;;
7531;SDS011;3807;49.030;8.714;2022-09-01T14:45:20;2.80;;;2.60;;
7531;SDS011;3807;49.030;8.714;2022-09-01T14:47:48;3.50;;;2.60;;
7531;SDS011;3807;49.030;8.714;2022-09-01T14:50:15;4.43;;;2.30;;
7531;SDS011;3807;49.030;8.714;2022-09-01T14:52:43;3.03;;;2.55;;
7531;SDS011;3807;49.030;8.714;2022-09-01T14:55:09;2.67;;;2.47;;
7531;SDS011;3807;49.030;8.714;2022-09-01T14:57:34;2.35;;;2.15;;
7531;SDS011;3807;49.030;8.714;2022-09-01T15:00:00;3.05;;;2.28;;
7531;SDS011;3807;49.030;8.714;2022-09-01T15:02:26;6.93;;;2.40;;
7531;SDS011;3807;49.030;8.714;2022-09-01T15:04:53;3.72;;;2.35;;
7531;SDS011;3807;49.030;8.714;2022-09-01T15:07:19;2.80;;;2.22;;
7531;SDS011;3807;49.030;8.714;2022-09-01T15:09:45;2.95;;;2.45;;
7531;SDS011;3807;49.030;8.714;2022-09-01T15:12:10;2.60;;;2.37;;
7531;SDS011;3807;49.030;8.714;2022-09-01T15:14:35;2.55;;;2.35;;
7531;SDS011;3807;49.030;8.714;2022-09-01T15:17:02;2.50;;;2.30;;
7531;SDS011;3807;49.030;8.714;2022-09-01T15:19:28;2.58;;;2.37;;
7531;SDS011;3807;49.030;8.714;2022-09-01T15:21:53;3.22;;;2.60;;
7531;SDS011;3807;49.030;8.714;2022-09-01T15:24:18;3.90;;;2.28;;
7531;SDS011;3807;49.030;8.714;2022-09-01T15:26:44;2.75;;;2.55;;
7531;SDS011;3807;49.030;8.714;2022-09-01T15:29:11;2.87;;;2.20;;
7531;SDS011;3807;49.030;8.714;2022-09-01T15:31:39;2.33;;;2.12;;
7531;SDS011;3807;49.030;8.714;2022-09-01T15:34:06;2.92;;;2.62;;
7531;SDS011;3807;49.030;8.714;2022-09-01T15:36:36;3.50;;;2.37;;
7531;SDS011;3807;49.030;8.714;2022-09-01T15:39:08;2.78;;;2.50;;
7531;SDS011;3807;49.030;8.714;2022-09-01T15:41:34;2.50;;;2.30;;
7531;SDS011;3807;49.030;8.714;2022-09-01T15:44:00;6.80;;;2.53;;
7531;SDS011;3807;49.030;8.714;2022-09-01T15:46:29;6.82;;;2.60;;
7531;SDS011;3807;49.030;8.714;2022-09-01T15:48:57;9.88;;;2.70;;
7531;SDS011;3807;49.030;8.714;2022-09-01T15:51:28;7.47;;;2.60;;
7531;SDS011;3807;49.030;8.714;2022-09-01T15:53:58;4.87;;;2.70;;
7531;SDS011;3807;49.030;8.714;2022-09-01T15:56:26;7.18;;;2.97;;
7531;SDS011;3807;49.030;8.714;2022-09-01T15:58:52;2.30;;;2.10;;
7531;SDS011;3807;49.030;8.714;2022-09-01T16:01:18;7.05;;;2.90;;
7531;SDS011;3807;49.030;8.714;2022-09-01T16:03:43;3.58;;;2.20;;
7531;SDS011;3807;49.030;8.714;2022-09-01T16:06:10;6.80;;;2.75;;
7531;SDS011;3807;49.030;8.714;2022-09-01T16:08:36;4.03;;;2.20;;
7531;SDS011;3807;49.030;8.714;2022-09-01T16:11:04;3.95;;;2.08;;
7531;SDS011;3807;49.030;8.714;2022-09-01T16:13:36;2.95;;;2.10;;
7531;SDS011;3807;49.030;8.714;2022-09-01T16:18:32;4.05;;;2.22;;
7531;SDS011;3807;49.030;8.714;2022-09-01T16:24:14;2.47;;;2.28;;
7531;SDS011;3807;49.030;8.714;2022-09-01T16:26:40;3.28;;;2.17;;
7531;SDS011;3807;49.030;8.714;2022-09-01T16:29:19;4.03;;;1.95;;
7531;SDS011;3807;49.030;8.714;2022-09-01T16:31:53;2.35;;;2.15;;
7531;SDS011;3807;49.030;8.714;2022-09-01T16:34:20;3.33;;;2.30;;
7531;SDS011;3807;49.030;8.714;2022-09-01T16:42:09;2.58;;;2.03;;
7531;SDS011;3807;49.030;8.714;2022-09-01T16:52:48;5.62;;;2.15;;
7531;SDS011;3807;49.030;8.714;2022-09-01T17:00:24;2.65;;;2.30;;
7531;SDS011;3807;49.030;8.714;2022-09-01T17:05:48;2.00;;;1.90;;
7531;SDS011;3807;49.030;8.714;2022-09-01T17:08:23;2.35;;;1.98;;
7531;SDS011;3807;49.030;8.714;2022-09-01T17:10:55;2.30;;;2.05;;